Time;durP1;ratioP1;P1;durP2;ratioP2;P2;SDS_P1;SDS_P2;PMS_P1;PMS_P2;Temp;Humidity;BMP_temperature;BMP_pressure;BME280_temperature;BME280_humidity;BME280_pressure;Samples;Min_cycle;Max_cycle;Signal;HPM_P1;HPM_P2
2021/01/08 00:00:04;;;;;;;47.20;21.17;;;;;;;;;;5053910;28;20399;-69
2021/01/08 00:02:29;;;;;;;43.72;20.60;;;;;;;;;;5054255;28;20024;-69
2021/01/08 00:04:54;;;;;;;45.88;21.38;;;;;;;;;;5042118;28;20021;-69
2021/01/08 00:07:19;;;;;;;49.03;20.30;;;;;;;;;;5046642;28;20055;-69
2021/01/08 00:09:44;;;;;;;41.67;19.85;;;;;;;;;;5046974;28;20025;-69
2021/01/08 00:12:10;;;;;;;50.65;20.80;;;;;;;;;;5048893;28;20670;-68
2021/01/08 00:14:35;;;;;;;33.67;14.43;;;;;;;;;;5048829;28;20042;-69
2021/01/08 00:17:00;;;;;;;46.47;21.40;;;;;;;;;;5062502;28;20035;-69
2021/01/08 00:19:25;;;;;;;47.55;24.10;;;;;;;;;;5050949;28;20024;-69
2021/01/08 00:21:51;;;;;;;55.42;23.75;;;;;;;;;;5044498;28;20029;-69
2021/01/08 00:24:16;;;;;;;48.55;20.60;;;;;;;;;;5050075;28;20029;-69
2021/01/08 00:26:41;;;;;;;53.40;24.90;;;;;;;;;;5048842;28;20441;-68
2021/01/08 00:29:07;;;;;;;50.03;24.83;;;;;;;;;;5050316;28;20024;-69
2021/01/08 00:31:39;;;;;;;51.60;24.60;;;;;;;;;;5045953;28;20017;-68
2021/01/08 00:34:05;;;;;;;48.95;21.00;;;;;;;;;;5054695;28;20027;-69
2021/01/08 00:36:30;;;;;;;53.38;25.08;;;;;;;;;;5051113;28;20123;-68
2021/01/08 00:38:56;;;;;;;48.72;21.65;;;;;;;;;;5063171;28;20496;-69
2021/01/08 00:41:31;;;;;;;41.65;20.45;;;;;;;;;;5050898;28;20434;-68
2021/01/08 00:43:56;;;;;;;44.60;20.00;;;;;;;;;;5057284;28;20468;-68
2021/01/08 00:46:28;;;;;;;40.92;18.63;;;;;;;;;;5050320;28;20056;-68
2021/01/08 00:48:54;;;;;;;38.33;18.73;;;;;;;;;;5044188;28;20024;-69
2021/01/08 00:51:19;;;;;;;42.83;22.67;;;;;;;;;;5055099;28;20179;-69
2021/01/08 00:53:44;;;;;;;44.15;19.80;;;;;;;;;;5061030;28;20490;-69
2021/01/08 00:56:16;;;;;;;45.28;20.92;;;;;;;;;;5047479;28;20282;-69
2021/01/08 00:58:41;;;;;;;49.35;28.23;;;;;;;;;;5045242;28;20017;-69
2021/01/08 01:01:06;;;;;;;45.10;21.98;;;;;;;;;;5044373;28;20540;-68
2021/01/08 01:03:32;;;;;;;52.03;22.85;;;;;;;;;;5049794;28;20051;-68
2021/01/08 01:05:57;;;;;;;46.05;21.67;;;;;;;;;;5054941;28;20025;-69
2021/01/08 01:08:22;;;;;;;51.33;25.08;;;;;;;;;;5048559;28;20485;-69
2021/01/08 01:10:47;;;;;;;47.60;24.63;;;;;;;;;;5053650;28;20037;-69
2021/01/08 01:13:12;;;;;;;51.08;22.73;;;;;;;;;;5047343;28;20401;-68
2021/01/08 01:15:38;;;;;;;47.25;22.05;;;;;;;;;;5049388;28;20103;-68
2021/01/08 01:18:03;;;;;;;49.58;21.67;;;;;;;;;;5053993;28;20068;-68
2021/01/08 01:20:28;;;;;;;47.78;22.75;;;;;;;;;;5046779;28;20056;-68
2021/01/08 01:22:53;;;;;;;47.53;20.85;;;;;;;;;;5044220;28;20535;-68
2021/01/08 01:25:18;;;;;;;53.42;22.70;;;;;;;;;;5044677;28;20108;-68
2021/01/08 01:27:43;;;;;;;58.95;25.95;;;;;;;;;;5057864;28;20096;-69
2021/01/08 01:30:09;;;;;;;50.70;23.90;;;;;;;;;;5049877;28;20021;-69
2021/01/08 01:32:34;;;;;;;50.08;22.70;;;;;;;;;;5044423;28;20385;-68
2021/01/08 01:34:59;;;;;;;51.00;24.98;;;;;;;;;;5055400;28;20021;-68
2021/01/08 01:37:25;;;;;;;48.80;22.70;;;;;;;;;;5046466;28;20029;-68
2021/01/08 01:39:50;;;;;;;49.17;22.48;;;;;;;;;;5062715;28;20023;-68
2021/01/08 01:42:15;;;;;;;43.50;19.67;;;;;;;;;;5051996;28;20441;-68
2021/01/08 01:44:40;;;;;;;37.33;18.38;;;;;;;;;;5057077;28;20526;-68
2021/01/08 01:47:05;;;;;;;40.47;18.10;;;;;;;;;;5052618;28;20021;-68
2021/01/08 01:49:31;;;;;;;37.45;17.88;;;;;;;;;;5056395;28;20045;-68
2021/01/08 01:51:58;;;;;;;41.92;18.98;;;;;;;;;;5059504;28;20031;-68
2021/01/08 01:54:23;;;;;;;39.35;18.45;;;;;;;;;;5054196;28;20492;-68
2021/01/08 01:56:49;;;;;;;43.60;20.40;;;;;;;;;;5064218;28;20100;-68
2021/01/08 01:59:14;;;;;;;40.90;17.92;;;;;;;;;;5063338;28;20043;-69
2021/01/08 02:01:39;;;;;;;42.78;19.58;;;;;;;;;;5053550;28;20109;-68
2021/01/08 02:04:04;;;;;;;41.50;22.67;;;;;;;;;;5056557;28;20142;-69
2021/01/08 02:06:32;;;;;;;32.60;16.48;;;;;;;;;;5056778;28;20025;-68
2021/01/08 02:09:12;;;;;;;40.25;17.48;;;;;;;;;;5072323;28;20563;-68
2021/01/08 02:11:37;;;;;;;;;;;;;;;;;;5055852;28;20477;-69
2021/01/08 02:14:06;;;;;;;36.42;17.02;;;;;;;;;;5055205;28;20547;-68
2021/01/08 02:16:33;;;;;;;40.55;18.80;;;;;;;;;;5055682;28;20496;-69
2021/01/08 02:18:59;;;;;;;37.83;17.35;;;;;;;;;;5056913;28;20025;-69
2021/01/08 02:21:28;;;;;;;38.42;17.02;;;;;;;;;;5056492;28;20033;-68
2021/01/08 02:23:59;;;;;;;38.35;19.27;;;;;;;;;;5048489;28;20029;-68
2021/01/08 02:26:25;;;;;;;40.13;18.48;;;;;;;;;;5053578;28;20027;-68
2021/01/08 02:28:50;;;;;;;41.38;18.80;;;;;;;;;;5057313;28;20111;-68
2021/01/08 02:31:15;;;;;;;40.63;17.98;;;;;;;;;;5059067;28;20028;-69
2021/01/08 02:33:41;;;;;;;40.85;20.65;;;;;;;;;;5062930;28;20473;-69
2021/01/08 02:36:07;;;;;;;46.50;19.77;;;;;;;;;;5061604;28;20024;-69
2021/01/08 02:38:32;;;;;;;40.22;21.52;;;;;;;;;;5044540;28;20084;-69
2021/01/08 02:40:58;;;;;;;40.25;18.38;;;;;;;;;;5052582;28;20029;-69
2021/01/08 02:43:25;;;;;;;51.22;21.75;;;;;;;;;;5051019;28;20075;-69
2021/01/08 02:45:50;;;;;;;46.05;20.73;;;;;;;;;;5050083;28;20424;-69
2021/01/08 02:48:16;;;;;;;46.75;21.67;;;;;;;;;;5056591;28;20032;-69
2021/01/08 02:50:41;;;;;;;45.85;22.58;;;;;;;;;;5058008;28;20585;-69
2021/01/08 02:53:07;;;;;;;37.70;19.10;;;;;;;;;;5052435;28;20376;-69
2021/01/08 02:55:33;;;;;;;42.38;18.88;;;;;;;;;;5061526;28;20035;-69
2021/01/08 02:57:59;;;;;;;46.60;21.20;;;;;;;;;;5055796;28;20021;-69
2021/01/08 03:00:25;;;;;;;48.72;19.83;;;;;;;;;;5047801;28;20021;-69
2021/01/08 03:02:50;;;;;;;47.83;20.98;;;;;;;;;;5044581;28;20017;-69
2021/01/08 03:05:16;;;;;;;49.65;21.85;;;;;;;;;;5054870;28;20040;-69
2021/01/08 03:07:41;;;;;;;50.40;23.85;;;;;;;;;;5053479;28;20020;-69
2021/01/08 03:10:07;;;;;;;45.90;19.00;;;;;;;;;;5048357;28;20509;-68
2021/01/08 03:12:32;;;;;;;47.83;20.98;;;;;;;;;;5064433;28;20025;-68
2021/01/08 03:14:59;;;;;;;50.38;22.23;;;;;;;;;;5054369;28;20025;-68
2021/01/08 03:17:24;;;;;;;45.88;20.80;;;;;;;;;;5052516;28;20021;-69
2021/01/08 03:19:49;;;;;;;52.25;22.42;;;;;;;;;;5067957;28;20032;-68
2021/01/08 03:22:14;;;;;;;41.38;16.98;;;;;;;;;;5059979;28;20020;-68
2021/01/08 03:24:39;;;;;;;46.38;19.05;;;;;;;;;;5064203;28;20069;-68
2021/01/08 03:27:05;;;;;;;41.50;17.20;;;;;;;;;;5065709;28;20031;-68
2021/01/08 03:29:30;;;;;;;39.72;17.58;;;;;;;;;;5066100;28;20032;-69
2021/01/08 03:31:55;;;;;;;36.83;17.15;;;;;;;;;;5051605;28;20122;-68
2021/01/08 03:34:21;;;;;;;41.28;18.45;;;;;;;;;;5060127;28;20392;-68
2021/01/08 03:36:46;;;;;;;41.60;18.75;;;;;;;;;;5059960;28;20024;-68
2021/01/08 03:39:11;;;;;;;38.75;17.80;;;;;;;;;;5057205;28;20012;-68
2021/01/08 03:41:37;;;;;;;45.03;18.73;;;;;;;;;;5054954;28;20082;-68
2021/01/08 03:44:02;;;;;;;42.47;18.10;;;;;;;;;;5059124;28;20032;-68
2021/01/08 03:46:28;;;;;;;46.78;19.85;;;;;;;;;;5050981;28;20025;-68
2021/01/08 03:48:53;;;;;;;44.50;21.77;;;;;;;;;;5052191;28;20124;-68
2021/01/08 03:51:18;;;;;;;45.38;19.33;;;;;;;;;;5052831;28;20032;-68
2021/01/08 03:53:43;;;;;;;46.03;19.30;;;;;;;;;;5050900;28;20009;-68
2021/01/08 03:56:08;;;;;;;45.13;19.98;;;;;;;;;;5052018;28;20098;-68
2021/01/08 03:58:34;;;;;;;43.50;20.15;;;;;;;;;;5062385;28;20029;-68
2021/01/08 04:00:59;;;;;;;39.95;17.38;;;;;;;;;;5064175;28;20020;-68
2021/01/08 04:03:24;;;;;;;44.05;18.70;;;;;;;;;;5060867;28;20128;-68
2021/01/08 04:05:49;;;;;;;42.92;19.35;;;;;;;;;;5047791;28;20064;-68
2021/01/08 04:08:14;;;;;;;44.20;18.38;;;;;;;;;;5052594;28;20033;-68
2021/01/08 04:10:40;;;;;;;45.10;19.52;;;;;;;;;;5062056;28;20358;-68
2021/01/08 04:13:05;;;;;;;46.42;18.30;;;;;;;;;;5052066;28;20025;-68
2021/01/08 04:15:30;;;;;;;48.15;19.42;;;;;;;;;;5055721;28;20583;-68
2021/01/08 04:17:55;;;;;;;43.53;18.83;;;;;;;;;;5063537;28;20704;-68
2021/01/08 04:20:21;;;;;;;43.47;17.10;;;;;;;;;;5059634;28;20116;-68
2021/01/08 04:22:46;;;;;;;46.58;19.17;;;;;;;;;;5051810;28;20025;-68
2021/01/08 04:25:11;;;;;;;44.35;18.75;;;;;;;;;;5057225;28;20100;-68
2021/01/08 04:27:36;;;;;;;45.15;21.40;;;;;;;;;;5055305;28;20386;-68
2021/01/08 04:30:03;;;;;;;50.03;20.60;;;;;;;;;;5059647;28;20563;-68
2021/01/08 04:32:28;;;;;;;47.75;21.33;;;;;;;;;;5056804;28;20390;-68
2021/01/08 04:34:53;;;;;;;47.65;19.27;;;;;;;;;;5056158;28;20017;-68
2021/01/08 04:37:18;;;;;;;48.30;18.15;;;;;;;;;;5053488;28;20032;-68
2021/01/08 04:39:43;;;;;;;36.75;16.42;;;;;;;;;;5048120;28;20029;-68
2021/01/08 04:42:09;;;;;;;42.25;16.60;;;;;;;;;;5057918;28;20025;-68
2021/01/08 04:44:34;;;;;;;41.30;16.77;;;;;;;;;;5057851;28;20021;-68
2021/01/08 04:46:59;;;;;;;39.20;15.85;;;;;;;;;;5062570;28;20031;-68
2021/01/08 04:49:24;;;;;;;36.67;15.98;;;;;;;;;;5053292;28;20032;-68
2021/01/08 04:51:50;;;;;;;33.60;13.77;;;;;;;;;;5060939;28;20597;-68
2021/01/08 04:54:16;;;;;;;33.85;14.35;;;;;;;;;;5056944;28;20017;-68
2021/01/08 04:56:43;;;;;;;35.33;14.98;;;;;;;;;;5061970;28;20024;-68
2021/01/08 04:59:08;;;;;;;35.92;14.70;;;;;;;;;;5052381;28;20029;-68
2021/01/08 05:01:34;;;;;;;33.38;14.05;;;;;;;;;;5058747;28;20025;-68
2021/01/08 05:03:59;;;;;;;36.47;14.73;;;;;;;;;;5055335;28;20029;-68
2021/01/08 05:06:24;;;;;;;35.20;15.43;;;;;;;;;;5063768;28;20024;-68
2021/01/08 05:08:50;;;;;;;37.75;15.13;;;;;;;;;;5062753;28;20027;-68
2021/01/08 05:11:28;;;;;;;68.78;19.95;;;;;;;;;;5052103;28;20040;-68
2021/01/08 05:14:00;;;;;;;42.00;17.08;;;;;;;;;;5047965;28;20013;-68
2021/01/08 05:16:26;;;;;;;46.40;16.85;;;;;;;;;;5055669;28;20198;-68
2021/01/08 05:18:52;;;;;;;42.75;19.73;;;;;;;;;;5054643;28;20024;-68
2021/01/08 05:21:18;;;;;;;48.97;18.65;;;;;;;;;;5056650;28;20040;-68
2021/01/08 05:23:43;;;;;;;38.67;15.23;;;;;;;;;;5054332;28;20071;-68
2021/01/08 05:26:11;;;;;;;37.15;14.82;;;;;;;;;;5056729;28;20025;-68
2021/01/08 05:28:36;;;;;;;37.30;15.82;;;;;;;;;;5050487;28;20028;-68
2021/01/08 05:31:10;;;;;;;37.15;14.98;;;;;;;;;;5050195;28;20024;-68
2021/01/08 05:33:35;;;;;;;34.80;14.48;;;;;;;;;;5056395;28;20035;-68
2021/01/08 05:36:01;;;;;;;31.80;12.68;;;;;;;;;;5055666;28;20028;-68
2021/01/08 05:38:27;;;;;;;28.52;11.13;;;;;;;;;;5060493;28;20099;-68
2021/01/08 05:40:59;;;;;;;26.38;11.32;;;;;;;;;;5061085;28;20102;-68
2021/01/08 05:43:24;;;;;;;28.00;11.93;;;;;;;;;;5059234;28;20021;-68
2021/01/08 05:45:50;;;;;;;29.45;13.63;;;;;;;;;;5052640;28;20140;-68
2021/01/08 05:48:16;;;;;;;33.80;13.93;;;;;;;;;;5050048;28;20048;-68
2021/01/08 05:50:41;;;;;;;28.58;11.18;;;;;;;;;;5050310;28;20028;-68
2021/01/08 05:53:07;;;;;;;29.52;12.57;;;;;;;;;;5060700;28;20017;-68
2021/01/08 05:55:36;;;;;;;27.40;11.45;;;;;;;;;;5056619;28;20420;-68
2021/01/08 05:58:20;;;;;;;29.60;12.30;;;;;;;;;;5061443;28;20082;-68
2021/01/08 06:00:55;;;;;;;27.85;11.75;;;;;;;;;;5048982;28;20017;-68
2021/01/08 06:03:21;;;;;;;26.23;11.13;;;;;;;;;;5056672;28;20027;-68
2021/01/08 06:05:46;;;;;;;26.63;11.43;;;;;;;;;;5053659;28;20021;-69
2021/01/08 06:08:11;;;;;;;27.45;11.35;;;;;;;;;;5061084;28;20437;-69
2021/01/08 06:10:38;;;;;;;28.60;12.05;;;;;;;;;;5063470;23;20043;-66
2021/01/08 06:13:04;;;;;;;32.90;12.95;;;;;;;;;;5052471;28;20029;-66
2021/01/08 06:15:29;;;;;;;32.58;13.00;;;;;;;;;;5051272;28;20019;-65
2021/01/08 06:17:54;;;;;;;31.83;13.60;;;;;;;;;;5057161;28;20039;-65
2021/01/08 06:20:20;;;;;;;34.25;12.75;;;;;;;;;;5057535;28;20052;-66
2021/01/08 06:22:45;;;;;;;35.35;12.43;;;;;;;;;;5046648;28;20366;-66
2021/01/08 06:25:11;;;;;;;38.17;12.23;;;;;;;;;;5046321;28;20051;-66
2021/01/08 06:27:37;;;;;;;31.60;12.63;;;;;;;;;;5053329;28;20096;-67
2021/01/08 06:30:06;;;;;;;32.08;12.38;;;;;;;;;;5058982;28;20392;-66
2021/01/08 06:32:31;;;;;;;27.85;11.15;;;;;;;;;;5060406;28;20043;-66
2021/01/08 06:35:01;;;;;;;35.83;14.07;;;;;;;;;;5051548;28;20020;-66
2021/01/08 06:37:34;;;;;;;30.80;12.73;;;;;;;;;;5069546;28;20012;-66
2021/01/08 06:40:01;;;;;;;34.28;12.90;;;;;;;;;;5061522;28;20035;-66
2021/01/08 06:42:27;;;;;;;32.10;13.05;;;;;;;;;;5062410;28;20055;-66
2021/01/08 06:44:54;;;;;;;37.25;13.43;;;;;;;;;;5052037;28;20028;-66
2021/01/08 06:47:21;;;;;;;39.95;14.38;;;;;;;;;;5057160;28;20111;-65
2021/01/08 06:49:49;;;;;;;35.67;14.85;;;;;;;;;;5066982;28;20025;-66
2021/01/08 06:52:14;;;;;;;40.67;13.90;;;;;;;;;;5059603;28;20466;-66
2021/01/08 06:54:42;;;;;;;42.80;16.10;;;;;;;;;;5060863;28;20016;-67
2021/01/08 06:57:10;;;;;;;43.20;16.27;;;;;;;;;;5060985;28;20017;-66
2021/01/08 06:59:37;;;;;;;43.47;16.45;;;;;;;;;;5059693;28;20104;-66
2021/01/08 07:02:08;;;;;;;46.50;16.80;;;;;;;;;;5064193;28;20017;-66
2021/01/08 07:04:37;;;;;;;43.80;14.98;;;;;;;;;;5059330;28;20059;-66
2021/01/08 07:07:03;;;;;;;42.05;15.57;;;;;;;;;;5053473;28;20525;-66
2021/01/08 07:09:30;;;;;;;44.65;14.52;;;;;;;;;;5051200;28;20025;-66
2021/01/08 07:11:57;;;;;;;37.10;14.10;;;;;;;;;;5049728;28;20032;-65
2021/01/08 07:14:23;;;;;;;35.67;13.35;;;;;;;;;;5040662;28;20034;-65
2021/01/08 07:16:52;;;;;;;39.63;19.77;;;;;;;;;;5039930;28;20025;-65
2021/01/08 07:19:18;;;;;;;35.20;13.05;;;;;;;;;;5039388;28;20040;-66
2021/01/08 07:21:48;;;;;;;38.33;14.60;;;;;;;;;;5053589;28;20018;-66
2021/01/08 07:24:14;;;;;;;29.27;12.27;;;;;;;;;;5055276;28;20052;-66
2021/01/08 07:26:40;;;;;;;32.10;12.25;;;;;;;;;;5054217;28;20554;-65
2021/01/08 07:29:07;;;;;;;32.13;13.23;;;;;;;;;;5059306;28;20060;-66
2021/01/08 07:31:33;;;;;;;28.33;11.27;;;;;;;;;;5048968;28;20492;-65
2021/01/08 07:33:59;;;;;;;34.38;12.63;;;;;;;;;;5057709;28;20017;-65
2021/01/08 07:36:25;;;;;;;32.20;13.90;;;;;;;;;;5048370;28;20653;-66
2021/01/08 07:38:50;;;;;;;33.00;13.65;;;;;;;;;;5061093;28;20070;-66
2021/01/08 07:41:38;;;;;;;32.78;12.93;;;;;;;;;;5064764;28;20028;-66
2021/01/08 07:44:05;;;;;;;33.70;12.88;;;;;;;;;;5057754;28;20017;-66
2021/01/08 07:46:31;;;;;;;29.90;12.40;;;;;;;;;;5049869;28;20021;-65
2021/01/08 07:48:57;;;;;;;35.67;13.15;;;;;;;;;;5066230;28;20132;-65
2021/01/08 07:51:23;;;;;;;47.97;12.85;;;;;;;;;;5060573;28;20055;-65
2021/01/08 07:53:50;;;;;;;34.67;13.20;;;;;;;;;;5053224;28;20030;-66
2021/01/08 07:56:21;;;;;;;32.33;12.63;;;;;;;;;;5063288;28;20016;-66
2021/01/08 07:58:59;;;;;;;36.55;14.40;;;;;;;;;;5050307;28;20013;-65
2021/01/08 08:01:25;;;;;;;31.30;12.55;;;;;;;;;;5046369;28;20067;-65
2021/01/08 08:04:07;;;;;;;36.42;15.35;;;;;;;;;;5041940;28;20433;-65
2021/01/08 08:06:39;;;;;;;43.45;14.75;;;;;;;;;;5041084;28;20028;-65
2021/01/08 08:09:05;;;;;;;40.95;14.95;;;;;;;;;;5043356;28;20361;-65
2021/01/08 08:11:32;;;;;;;35.30;14.98;;;;;;;;;;5043984;28;20496;-65
2021/01/08 08:13:58;;;;;;;41.22;14.38;;;;;;;;;;5049335;28;20469;-66
2021/01/08 08:16:29;;;;;;;39.58;15.73;;;;;;;;;;5049434;28;20020;-66
2021/01/08 08:18:54;;;;;;;37.60;14.40;;;;;;;;;;5048483;28;20110;-66
2021/01/08 08:21:19;;;;;;;43.90;15.40;;;;;;;;;;5047823;28;21967;-66
2021/01/08 08:23:51;;;;;;;40.67;15.70;;;;;;;;;;5049630;28;20025;-65
2021/01/08 08:26:16;;;;;;;44.65;16.88;;;;;;;;;;5049142;28;20496;-65
2021/01/08 08:28:41;;;;;;;40.83;14.93;;;;;;;;;;5049871;28;20020;-66
2021/01/08 08:31:07;;;;;;;39.80;16.75;;;;;;;;;;5048667;28;20416;-66
2021/01/08 08:33:32;;;;;;;38.13;15.60;;;;;;;;;;5049820;28;20087;-66
2021/01/08 08:35:57;;;;;;;41.42;16.25;;;;;;;;;;5049293;28;20021;-66
2021/01/08 08:38:22;;;;;;;39.90;15.18;;;;;;;;;;5049539;28;20514;-66
2021/01/08 08:40:47;;;;;;;41.22;14.88;;;;;;;;;;5049304;28;20024;-66
2021/01/08 08:43:20;;;;;;;48.50;15.18;;;;;;;;;;5049440;28;20028;-65
2021/01/08 08:45:46;;;;;;;42.08;14.50;;;;;;;;;;5049064;28;20013;-65
2021/01/08 08:48:11;;;;;;;44.08;15.23;;;;;;;;;;5049267;28;20027;-65
2021/01/08 08:50:41;;;;;;;47.15;16.92;;;;;;;;;;5049898;28;20021;-65
2021/01/08 08:53:10;;;;;;;43.80;16.38;;;;;;;;;;5049709;28;20017;-65
2021/01/08 08:55:35;;;;;;;45.72;15.77;;;;;;;;;;5049775;28;20031;-65
2021/01/08 08:58:01;;;;;;;52.83;21.48;;;;;;;;;;5049462;28;20102;-66
2021/01/08 09:00:27;;;;;;;45.17;18.17;;;;;;;;;;5050038;28;20017;-65
2021/01/08 09:02:52;;;;;;;49.42;18.95;;;;;;;;;;5049604;28;20158;-65
2021/01/08 09:05:17;;;;;;;46.30;18.17;;;;;;;;;;5050037;28;20021;-65
2021/01/08 09:07:42;;;;;;;47.95;17.90;;;;;;;;;;5049491;28;20032;-65
2021/01/08 09:10:08;;;;;;;46.67;18.97;;;;;;;;;;5050311;28;20032;-66
2021/01/08 09:12:33;;;;;;;54.00;19.98;;;;;;;;;;5046170;28;20280;-66
2021/01/08 09:15:02;;;;;;;52.63;17.45;;;;;;;;;;5048290;28;20413;-66
2021/01/08 09:17:31;;;;;;;50.58;17.10;;;;;;;;;;5049082;28;20029;-66
2021/01/08 09:19:58;;;;;;;49.40;17.40;;;;;;;;;;5049253;28;20067;-65
2021/01/08 09:22:26;;;;;;;51.95;17.25;;;;;;;;;;5050186;28;20075;-65
2021/01/08 09:24:57;;;;;;;49.70;17.85;;;;;;;;;;5048985;28;20393;-65
2021/01/08 09:27:22;;;;;;;52.85;20.20;;;;;;;;;;5050356;28;20025;-65
2021/01/08 09:29:47;;;;;;;48.85;16.80;;;;;;;;;;5043512;28;20043;-67
2021/01/08 09:32:29;;;;;;;44.38;17.40;;;;;;;;;;5047200;28;20037;-65
2021/01/08 09:34:58;;;;;;;57.50;22.05;;;;;;;;;;5047570;28;20016;-66
2021/01/08 09:37:23;;;;;;;51.00;18.70;;;;;;;;;;5051043;28;20472;-65
2021/01/08 09:39:48;;;;;;;55.53;20.88;;;;;;;;;;5051066;28;20025;-66
2021/01/08 09:42:14;;;;;;;55.88;19.58;;;;;;;;;;5051475;28;20517;-65
2021/01/08 09:44:40;;;;;;;57.20;22.92;;;;;;;;;;5048312;28;20044;-65
2021/01/08 09:47:09;;;;;;;52.80;18.30;;;;;;;;;;5049354;28;20025;-65
2021/01/08 09:49:40;;;;;;;51.17;16.52;;;;;;;;;;5048673;28;20021;-66
2021/01/08 09:52:06;;;;;;;55.40;22.42;;;;;;;;;;5048170;28;20035;-65
2021/01/08 09:54:44;;;;;;;58.83;23.08;;;;;;;;;;5048350;28;20025;-65
2021/01/08 09:57:10;;;;;;;58.75;19.98;;;;;;;;;;5049337;28;20017;-66
2021/01/08 09:59:36;;;;;;;50.60;19.20;;;;;;;;;;5049839;28;20017;-66
2021/01/08 10:04:30;;;;;;;61.28;24.13;;;;;;;;;;5052346;28;20044;-66
2021/01/08 10:07:00;;;;;;;43.33;18.13;;;;;;;;;;5052241;28;20028;-66
2021/01/08 10:09:25;;;;;;;54.93;25.20;;;;;;;;;;5051569;28;20538;-66
2021/01/08 10:11:57;;;;;;;57.97;20.90;;;;;;;;;;5051986;28;20025;-66
2021/01/08 10:14:27;;;;;;;47.33;19.98;;;;;;;;;;5051344;28;20381;-66
2021/01/08 10:16:53;;;;;;;55.58;22.13;;;;;;;;;;5052195;28;20468;-66
2021/01/08 10:19:18;;;;;;;50.37;20.47;;;;;;;;;;5052785;28;20029;-65
2021/01/08 10:21:43;;;;;;;53.08;20.75;;;;;;;;;;5051308;28;20298;-65
2021/01/08 10:24:08;;;;;;;52.42;21.15;;;;;;;;;;5051914;28;20772;-65
2021/01/08 10:26:34;;;;;;;57.42;21.48;;;;;;;;;;5052288;28;20437;-65
2021/01/08 10:28:59;;;;;;;45.55;18.67;;;;;;;;;;5051218;28;20035;-65
2021/01/08 10:31:24;;;;;;;53.65;22.45;;;;;;;;;;5051709;28;20025;-66
2021/01/08 10:33:50;;;;;;;56.83;21.25;;;;;;;;;;5051728;28;20233;-65
2021/01/08 10:36:16;;;;;;;52.92;20.52;;;;;;;;;;5050437;28;20029;-66
2021/01/08 10:38:42;;;;;;;48.30;20.02;;;;;;;;;;5051575;28;20023;-65
2021/01/08 10:41:07;;;;;;;49.00;19.35;;;;;;;;;;5050888;28;20032;-66
2021/01/08 10:43:35;;;;;;;44.28;19.77;;;;;;;;;;5050774;28;20021;-66
2021/01/08 10:46:02;;;;;;;45.92;20.52;;;;;;;;;;5050918;28;20033;-65
2021/01/08 10:48:28;;;;;;;43.60;19.45;;;;;;;;;;5051719;28;20040;-66
2021/01/08 10:50:53;;;;;;;42.92;18.73;;;;;;;;;;5052867;28;20480;-66
2021/01/08 10:53:18;;;;;;;47.53;20.67;;;;;;;;;;5051730;28;20600;-66
2021/01/08 10:55:46;;;;;;;39.38;18.88;;;;;;;;;;5053572;28;20047;-66
2021/01/08 10:58:11;;;;;;;38.38;18.00;;;;;;;;;;5050815;28;20021;-66
2021/01/08 11:00:37;;;;;;;43.45;21.20;;;;;;;;;;5051936;28;20024;-66
2021/01/08 11:03:02;;;;;;;47.25;21.40;;;;;;;;;;5048011;28;20036;-66
2021/01/08 11:05:27;;;;;;;43.40;21.55;;;;;;;;;;5043709;28;20470;-66
2021/01/08 11:07:52;;;;;;;57.67;21.83;;;;;;;;;;5052752;28;20067;-66
2021/01/08 11:10:17;;;;;;;46.22;20.67;;;;;;;;;;5052601;28;20028;-66
2021/01/08 11:12:43;;;;;;;51.58;24.63;;;;;;;;;;5051090;28;20025;-66
2021/01/08 11:15:09;;;;;;;50.53;22.30;;;;;;;;;;5052920;28;20108;-66
2021/01/08 11:17:34;;;;;;;45.47;20.35;;;;;;;;;;5051795;28;20203;-65
2021/01/08 11:19:59;;;;;;;48.88;18.88;;;;;;;;;;5048110;28;20075;-65
2021/01/08 11:22:25;;;;;;;39.33;18.00;;;;;;;;;;5050052;28;20025;-65
2021/01/08 11:24:50;;;;;;;40.30;16.67;;;;;;;;;;5050462;28;20028;-66
2021/01/08 11:27:15;;;;;;;37.77;16.63;;;;;;;;;;5050881;28;20017;-66
2021/01/08 11:29:41;;;;;;;39.33;17.35;;;;;;;;;;5052876;28;20731;-65
2021/01/08 11:32:07;;;;;;;40.22;16.30;;;;;;;;;;5053224;28;20036;-66
2021/01/08 11:34:32;;;;;;;38.58;17.23;;;;;;;;;;5054383;28;20081;-66
2021/01/08 11:36:57;;;;;;;39.67;18.70;;;;;;;;;;5052860;28;20104;-65
2021/01/08 11:39:23;;;;;;;40.50;18.95;;;;;;;;;;5060046;28;20088;-65
2021/01/08 11:41:48;;;;;;;42.10;19.13;;;;;;;;;;5051944;28;20024;-65
2021/01/08 11:44:13;;;;;;;42.78;18.73;;;;;;;;;;5063076;28;20388;-65
2021/01/08 11:46:38;;;;;;;34.90;17.80;;;;;;;;;;5062226;28;20020;-65
2021/01/08 11:49:04;;;;;;;36.00;17.27;;;;;;;;;;5066490;28;20024;-65
2021/01/08 11:51:29;;;;;;;40.72;17.90;;;;;;;;;;5055462;28;20083;-66
2021/01/08 11:53:54;;;;;;;35.25;17.65;;;;;;;;;;5059215;28;20029;-66
2021/01/08 11:56:26;;;;;;;43.03;18.65;;;;;;;;;;5054119;28;20017;-65
2021/01/08 11:58:51;;;;;;;31.52;15.65;;;;;;;;;;5049843;28;20027;-65
2021/01/08 12:01:16;;;;;;;34.15;16.60;;;;;;;;;;5049994;28;20025;-65
2021/01/08 12:03:41;;;;;;;37.08;18.15;;;;;;;;;;5049676;28;20025;-65
2021/01/08 12:06:07;;;;;;;35.58;16.08;;;;;;;;;;5049882;28;20491;-65
2021/01/08 12:08:32;;;;;;;37.97;17.67;;;;;;;;;;5050479;28;20032;-66
2021/01/08 12:10:58;;;;;;;37.17;17.05;;;;;;;;;;5049730;28;20037;-65
2021/01/08 12:13:24;;;;;;;29.30;13.88;;;;;;;;;;5050006;28;20017;-65
2021/01/08 12:15:49;;;;;;;33.40;14.40;;;;;;;;;;5048984;28;20428;-66
2021/01/08 12:18:15;;;;;;;30.92;15.07;;;;;;;;;;5049887;28;20461;-65
2021/01/08 12:20:40;;;;;;;31.33;14.93;;;;;;;;;;5053358;28;20029;-64
2021/01/08 12:23:05;;;;;;;32.03;14.55;;;;;;;;;;5048897;28;20023;-67
2021/01/08 12:25:34;;;;;;;30.50;13.93;;;;;;;;;;5052222;28;20552;-65
2021/01/08 12:28:00;;;;;;;28.48;13.02;;;;;;;;;;5050203;28;20032;-65
2021/01/08 12:30:25;;;;;;;28.60;13.20;;;;;;;;;;5051252;28;20028;-66
2021/01/08 12:32:51;;;;;;;28.67;14.18;;;;;;;;;;5055383;28;20021;-65
2021/01/08 12:35:18;;;;;;;26.00;12.52;;;;;;;;;;5051185;28;20017;-65
2021/01/08 12:37:43;;;;;;;27.27;15.57;;;;;;;;;;5053216;28;20024;-65
2021/01/08 12:40:09;;;;;;;24.38;11.88;;;;;;;;;;5052838;28;20020;-65
2021/01/08 12:42:34;;;;;;;27.27;13.60;;;;;;;;;;5048950;28;20431;-65
2021/01/08 12:44:59;;;;;;;29.75;14.05;;;;;;;;;;5045513;28;20621;-65
2021/01/08 12:47:24;;;;;;;28.38;12.30;;;;;;;;;;5041982;28;20033;-65
2021/01/08 12:49:50;;;;;;;23.10;11.80;;;;;;;;;;5050412;28;20100;-66
2021/01/08 12:52:15;;;;;;;28.90;11.48;;;;;;;;;;5050347;28;20032;-65
2021/01/08 12:54:40;;;;;;;21.55;10.05;;;;;;;;;;5050003;28;20021;-65
2021/01/08 12:57:05;;;;;;;27.67;11.07;;;;;;;;;;5052271;28;20053;-65
2021/01/08 12:59:30;;;;;;;22.47;11.33;;;;;;;;;;5050821;28;20020;-66
2021/01/08 13:01:56;;;;;;;31.02;12.02;;;;;;;;;;5052782;28;20271;-66
2021/01/08 13:04:21;;;;;;;25.27;10.68;;;;;;;;;;5053873;28;20029;-66
2021/01/08 13:06:46;;;;;;;20.67;10.93;;;;;;;;;;5051003;28;20021;-66
2021/01/08 13:09:11;;;;;;;18.98;10.55;;;;;;;;;;5053509;28;20301;-66
2021/01/08 13:11:37;;;;;;;23.73;10.77;;;;;;;;;;5049408;28;20066;-66
2021/01/08 13:14:02;;;;;;;21.50;9.98;;;;;;;;;;5049283;28;20259;-66
2021/01/08 13:16:28;;;;;;;21.25;9.80;;;;;;;;;;5048478;28;20401;-66
2021/01/08 13:18:53;;;;;;;21.63;10.03;;;;;;;;;;5049387;28;20037;-66
2021/01/08 13:21:18;;;;;;;19.23;9.25;;;;;;;;;;5054659;28;20356;-66
2021/01/08 13:23:44;;;;;;;20.42;9.45;;;;;;;;;;5049732;28;20043;-65
2021/01/08 13:26:10;;;;;;;27.08;10.40;;;;;;;;;;5046159;28;20028;-66
2021/01/08 13:28:35;;;;;;;21.83;9.43;;;;;;;;;;5052662;28;20025;-66
2021/01/08 13:31:01;;;;;;;20.00;9.38;;;;;;;;;;5048290;28;20025;-66
2021/01/08 13:33:26;;;;;;;22.02;10.90;;;;;;;;;;5049108;28;20029;-66
2021/01/08 13:35:51;;;;;;;19.90;9.88;;;;;;;;;;5052405;28;20024;-66
2021/01/08 13:38:16;;;;;;;25.97;9.83;;;;;;;;;;5057073;28;20131;-66
2021/01/08 13:40:41;;;;;;;24.13;10.65;;;;;;;;;;5051586;28;20889;-66
2021/01/08 13:43:07;;;;;;;22.17;11.07;;;;;;;;;;5053689;28;20058;-67
2021/01/08 13:45:32;;;;;;;22.05;9.65;;;;;;;;;;5051321;28;20021;-65
2021/01/08 13:47:57;;;;;;;22.10;10.03;;;;;;;;;;5050777;28;20056;-68
2021/01/08 13:50:22;;;;;;;19.05;9.82;;;;;;;;;;5049992;28;20302;-65
2021/01/08 13:52:47;;;;;;;23.27;10.77;;;;;;;;;;5054662;28;20025;-65
2021/01/08 13:55:13;;;;;;;20.98;9.57;;;;;;;;;;5052042;28;20009;-66
2021/01/08 13:57:38;;;;;;;20.10;9.68;;;;;;;;;;5056113;28;20053;-66
2021/01/08 14:00:04;;;;;;;16.90;8.93;;;;;;;;;;5051145;28;20100;-66
2021/01/08 14:02:29;;;;;;;21.42;10.20;;;;;;;;;;5051283;28;20013;-66
2021/01/08 14:04:56;;;;;;;22.50;10.15;;;;;;;;;;5051468;28;20021;-66
2021/01/08 14:07:21;;;;;;;20.13;9.80;;;;;;;;;;5053237;28;20056;-66
2021/01/08 14:09:46;;;;;;;25.42;10.23;;;;;;;;;;5032298;28;554708;-65
2021/01/08 14:12:11;;;;;;;16.30;8.77;;;;;;;;;;5052940;28;20487;-65
2021/01/08 14:14:38;;;;;;;19.00;8.20;;;;;;;;;;5057562;28;20021;-66